sensor_id;sensor_type;location;lat;lon;timestamp;P1;durP1;ratioP1;P2;durP2;ratioP2
25319;SDS011;13256;49.012;8.610;2022-08-19T00:00:17;25.92;;;17.13;;
25319;SDS011;13256;49.012;8.610;2022-08-19T00:02:47;27.35;;;18.83;;
25319;SDS011;13256;49.012;8.610;2022-08-19T00:05:17;27.67;;;18.13;;
25319;SDS011;13256;49.012;8.610;2022-08-19T00:07:45;25.08;;;17.23;;
25319;SDS011;13256;49.012;8.610;2022-08-19T00:10:20;25.10;;;17.90;;
25319;SDS011;13256;49.012;8.610;2022-08-19T00:12:50;23.00;;;17.45;;
25319;SDS011;13256;49.012;8.610;2022-08-19T00:15:18;24.45;;;18.00;;
25319;SDS011;13256;49.012;8.610;2022-08-19T00:17:46;25.25;;;17.80;;
25319;SDS011;13256;49.012;8.610;2022-08-19T00:20:15;27.73;;;19.52;;
25319;SDS011;13256;49.012;8.610;2022-08-19T00:22:47;24.55;;;17.75;;
25319;SDS011;13256;49.012;8.610;2022-08-19T00:25:18;25.90;;;18.07;;
25319;SDS011;13256;49.012;8.610;2022-08-19T00:27:56;28.58;;;19.90;;
25319;SDS011;13256;49.012;8.610;2022-08-19T00:30:24;26.80;;;18.90;;
25319;SDS011;13256;49.012;8.610;2022-08-19T00:32:54;23.77;;;18.13;;
25319;SDS011;13256;49.012;8.610;2022-08-19T00:35:22;24.10;;;17.58;;
25319;SDS011;13256;49.012;8.610;2022-08-19T00:37:49;23.48;;;17.73;;
25319;SDS011;13256;49.012;8.610;2022-08-19T00:40:18;24.15;;;17.63;;
25319;SDS011;13256;49.012;8.610;2022-08-19T00:42:48;24.73;;;18.13;;
25319;SDS011;13256;49.012;8.610;2022-08-19T00:45:17;26.73;;;19.35;;
25319;SDS011;13256;49.012;8.610;2022-08-19T00:47:46;25.92;;;19.02;;
25319;SDS011;13256;49.012;8.610;2022-08-19T00:50:13;30.42;;;19.10;;
25319;SDS011;13256;49.012;8.610;2022-08-19T00:52:47;25.25;;;16.90;;
25319;SDS011;13256;49.012;8.610;2022-08-19T00:57:48;30.13;;;19.45;;
25319;SDS011;13256;49.012;8.610;2022-08-19T01:03:09;28.23;;;19.20;;
25319;SDS011;13256;49.012;8.610;2022-08-19T01:08:11;26.67;;;19.35;;
25319;SDS011;13256;49.012;8.610;2022-08-19T01:13:37;28.02;;;18.27;;
25319;SDS011;13256;49.012;8.610;2022-08-19T01:16:17;26.40;;;20.25;;
25319;SDS011;13256;49.012;8.610;2022-08-19T01:21:28;28.40;;;20.45;;
25319;SDS011;13256;49.012;8.610;2022-08-19T01:26:45;27.90;;;19.05;;
25319;SDS011;13256;49.012;8.610;2022-08-19T01:29:16;28.98;;;18.52;;
25319;SDS011;13256;49.012;8.610;2022-08-19T01:31:48;24.58;;;17.92;;
25319;SDS011;13256;49.012;8.610;2022-08-19T01:34:20;27.02;;;19.40;;
25319;SDS011;13256;49.012;8.610;2022-08-19T01:39:55;22.83;;;17.77;;
25319;SDS011;13256;49.012;8.610;2022-08-19T01:42:22;24.30;;;17.27;;
25319;SDS011;13256;49.012;8.610;2022-08-19T01:44:56;25.40;;;18.30;;
25319;SDS011;13256;49.012;8.610;2022-08-19T01:47:28;29.55;;;20.85;;
25319;SDS011;13256;49.012;8.610;2022-08-19T01:49:55;25.00;;;18.80;;
25319;SDS011;13256;49.012;8.610;2022-08-19T01:52:24;26.95;;;19.58;;
25319;SDS011;13256;49.012;8.610;2022-08-19T01:57:30;28.52;;;19.75;;
25319;SDS011;13256;49.012;8.610;2022-08-19T02:00:01;27.30;;;19.15;;
25319;SDS011;13256;49.012;8.610;2022-08-19T02:05:35;26.38;;;18.83;;
25319;SDS011;13256;49.012;8.610;2022-08-19T02:08:02;24.75;;;19.48;;
25319;SDS011;13256;49.012;8.610;2022-08-19T02:10:31;26.55;;;19.38;;
25319;SDS011;13256;49.012;8.610;2022-08-19T02:13:02;26.08;;;19.13;;
25319;SDS011;13256;49.012;8.610;2022-08-19T02:18:22;26.50;;;19.92;;
25319;SDS011;13256;49.012;8.610;2022-08-19T02:20:53;31.38;;;20.92;;
25319;SDS011;13256;49.012;8.610;2022-08-19T02:23:21;26.92;;;19.42;;
25319;SDS011;13256;49.012;8.610;2022-08-19T02:42:47;24.92;;;19.08;;
25319;SDS011;13256;49.012;8.610;2022-08-19T02:45:14;25.08;;;19.17;;
25319;SDS011;13256;49.012;8.610;2022-08-19T02:47:42;30.65;;;19.75;;
25319;SDS011;13256;49.012;8.610;2022-08-19T02:50:09;26.17;;;19.98;;
25319;SDS011;13256;49.012;8.610;2022-08-19T02:52:35;26.42;;;19.23;;
25319;SDS011;13256;49.012;8.610;2022-08-19T02:55:02;25.00;;;19.90;;
25319;SDS011;13256;49.012;8.610;2022-08-19T02:57:32;26.20;;;19.58;;
25319;SDS011;13256;49.012;8.610;2022-08-19T03:00:00;26.58;;;20.10;;
25319;SDS011;13256;49.012;8.610;2022-08-19T03:05:02;23.25;;;18.30;;
25319;SDS011;13256;49.012;8.610;2022-08-19T03:07:30;22.75;;;18.17;;
25319;SDS011;13256;49.012;8.610;2022-08-19T03:09:59;26.27;;;19.67;;
25319;SDS011;13256;49.012;8.610;2022-08-19T03:12:34;28.23;;;20.02;;
25319;SDS011;13256;49.012;8.610;2022-08-19T03:15:03;24.65;;;19.80;;
25319;SDS011;13256;49.012;8.610;2022-08-19T03:17:34;24.85;;;19.00;;
25319;SDS011;13256;49.012;8.610;2022-08-19T03:20:03;24.67;;;19.60;;
25319;SDS011;13256;49.012;8.610;2022-08-19T03:30:30;28.02;;;19.88;;
25319;SDS011;13256;49.012;8.610;2022-08-19T03:35:37;23.77;;;18.65;;
25319;SDS011;13256;49.012;8.610;2022-08-19T03:38:10;25.92;;;19.35;;
25319;SDS011;13256;49.012;8.610;2022-08-19T03:47:10;25.00;;;19.58;;
25319;SDS011;13256;49.012;8.610;2022-08-19T03:49:42;24.63;;;18.70;;
25319;SDS011;13256;49.012;8.610;2022-08-19T03:58:24;26.20;;;20.30;;
25319;SDS011;13256;49.012;8.610;2022-08-19T04:08:44;30.17;;;23.58;;
25319;SDS011;13256;49.012;8.610;2022-08-19T04:11:15;29.52;;;22.08;;
25319;SDS011;13256;49.012;8.610;2022-08-19T04:13:45;31.58;;;22.95;;
25319;SDS011;13256;49.012;8.610;2022-08-19T04:16:12;30.67;;;22.67;;
25319;SDS011;13256;49.012;8.610;2022-08-19T04:18:41;33.72;;;23.48;;
25319;SDS011;13256;49.012;8.610;2022-08-19T04:23:51;30.40;;;21.80;;
25319;SDS011;13256;49.012;8.610;2022-08-19T04:26:22;29.13;;;21.58;;
25319;SDS011;13256;49.012;8.610;2022-08-19T04:28:54;28.15;;;21.55;;
25319;SDS011;13256;49.012;8.610;2022-08-19T04:34:44;32.00;;;21.67;;
25319;SDS011;13256;49.012;8.610;2022-08-19T04:37:39;32.58;;;22.73;;
25319;SDS011;13256;49.012;8.610;2022-08-19T04:40:07;30.10;;;22.60;;
25319;SDS011;13256;49.012;8.610;2022-08-19T04:45:27;31.23;;;22.52;;
25319;SDS011;13256;49.012;8.610;2022-08-19T05:00:16;27.08;;;20.70;;
25319;SDS011;13256;49.012;8.610;2022-08-19T05:02:50;27.95;;;21.27;;
25319;SDS011;13256;49.012;8.610;2022-08-19T05:05:23;28.88;;;21.45;;
25319;SDS011;13256;49.012;8.610;2022-08-19T05:13:52;31.20;;;22.42;;
25319;SDS011;13256;49.012;8.610;2022-08-19T05:18:52;29.77;;;21.58;;
25319;SDS011;13256;49.012;8.610;2022-08-19T05:25:09;30.10;;;22.00;;
25319;SDS011;13256;49.012;8.610;2022-08-19T05:27:40;27.65;;;20.75;;
25319;SDS011;13256;49.012;8.610;2022-08-19T05:33:04;31.05;;;21.20;;
25319;SDS011;13256;49.012;8.610;2022-08-19T05:43:43;26.05;;;19.27;;
25319;SDS011;13256;49.012;8.610;2022-08-19T05:49:19;29.27;;;21.13;;
25319;SDS011;13256;49.012;8.610;2022-08-19T05:51:54;26.45;;;19.77;;
25319;SDS011;13256;49.012;8.610;2022-08-19T05:54:21;23.83;;;20.23;;
25319;SDS011;13256;49.012;8.610;2022-08-19T05:57:27;26.98;;;19.58;;
25319;SDS011;13256;49.012;8.610;2022-08-19T05:59:54;25.77;;;19.77;;
25319;SDS011;13256;49.012;8.610;2022-08-19T06:02:49;30.55;;;20.88;;
25319;SDS011;13256;49.012;8.610;2022-08-19T06:05:20;29.08;;;19.95;;
25319;SDS011;13256;49.012;8.610;2022-08-19T06:07:47;23.48;;;19.77;;
25319;SDS011;13256;49.012;8.610;2022-08-19T06:10:17;26.77;;;19.30;;
25319;SDS011;13256;49.012;8.610;2022-08-19T06:12:44;27.08;;;19.15;;
25319;SDS011;13256;49.012;8.610;2022-08-19T06:15:14;23.05;;;18.98;;
25319;SDS011;13256;49.012;8.610;2022-08-19T06:17:41;27.15;;;19.83;;
25319;SDS011;13256;49.012;8.610;2022-08-19T06:22:58;25.55;;;17.77;;
25319;SDS011;13256;49.012;8.610;2022-08-19T06:25:32;25.55;;;18.48;;
25319;SDS011;13256;49.012;8.610;2022-08-19T06:28:03;24.02;;;18.75;;
25319;SDS011;13256;49.012;8.610;2022-08-19T06:31:27;26.73;;;20.00;;
25319;SDS011;13256;49.012;8.610;2022-08-19T06:33:55;25.77;;;18.45;;
25319;SDS011;13256;49.012;8.610;2022-08-19T06:36:23;26.42;;;19.50;;
25319;SDS011;13256;49.012;8.610;2022-08-19T06:39:30;23.02;;;17.67;;
25319;SDS011;13256;49.012;8.610;2022-08-19T06:45:00;25.17;;;17.95;;
25319;SDS011;13256;49.012;8.610;2022-08-19T06:48:03;23.05;;;17.95;;
25319;SDS011;13256;49.012;8.610;2022-08-19T06:50:30;22.73;;;18.23;;
25319;SDS011;13256;49.012;8.610;2022-08-19T06:53:05;24.52;;;18.60;;
25319;SDS011;13256;49.012;8.610;2022-08-19T06:55:34;25.20;;;18.05;;
25319;SDS011;13256;49.012;8.610;2022-08-19T06:58:02;23.35;;;17.70;;
25319;SDS011;13256;49.012;8.610;2022-08-19T07:00:31;25.63;;;18.42;;
25319;SDS011;13256;49.012;8.610;2022-08-19T07:03:02;22.40;;;17.58;;
25319;SDS011;13256;49.012;8.610;2022-08-19T07:05:39;24.55;;;17.33;;
25319;SDS011;13256;49.012;8.610;2022-08-19T07:08:12;22.80;;;17.77;;
25319;SDS011;13256;49.012;8.610;2022-08-19T07:10:42;20.52;;;16.58;;
25319;SDS011;13256;49.012;8.610;2022-08-19T07:13:10;21.58;;;17.00;;
25319;SDS011;13256;49.012;8.610;2022-08-19T07:15:37;21.88;;;17.10;;
25319;SDS011;13256;49.012;8.610;2022-08-19T07:18:05;19.55;;;16.45;;
25319;SDS011;13256;49.012;8.610;2022-08-19T07:20:33;26.10;;;16.90;;
25319;SDS011;13256;49.012;8.610;2022-08-19T07:23:04;23.25;;;17.38;;
25319;SDS011;13256;49.012;8.610;2022-08-19T07:25:36;24.10;;;16.33;;
25319;SDS011;13256;49.012;8.610;2022-08-19T07:28:03;21.23;;;16.63;;
25319;SDS011;13256;49.012;8.610;2022-08-19T07:33:50;20.92;;;16.40;;
25319;SDS011;13256;49.012;8.610;2022-08-19T07:36:22;17.63;;;15.35;;
25319;SDS011;13256;49.012;8.610;2022-08-19T07:39:18;23.42;;;17.10;;
25319;SDS011;13256;49.012;8.610;2022-08-19T07:41:49;18.70;;;14.75;;
25319;SDS011;13256;49.012;8.610;2022-08-19T07:44:16;20.35;;;15.57;;
25319;SDS011;13256;49.012;8.610;2022-08-19T07:46:45;21.65;;;15.40;;
25319;SDS011;13256;49.012;8.610;2022-08-19T07:49:19;21.10;;;14.75;;
25319;SDS011;13256;49.012;8.610;2022-08-19T07:51:47;18.08;;;15.18;;
25319;SDS011;13256;49.012;8.610;2022-08-19T07:54:22;21.25;;;15.30;;
25319;SDS011;13256;49.012;8.610;2022-08-19T07:56:53;24.60;;;14.88;;
25319;SDS011;13256;49.012;8.610;2022-08-19T07:59:23;16.10;;;14.40;;
25319;SDS011;13256;49.012;8.610;2022-08-19T08:01:52;19.20;;;15.07;;
25319;SDS011;13256;49.012;8.610;2022-08-19T08:04:20;20.35;;;14.45;;
25319;SDS011;13256;49.012;8.610;2022-08-19T08:07:07;17.48;;;14.10;;
25319;SDS011;13256;49.012;8.610;2022-08-19T08:09:57;20.02;;;14.68;;
25319;SDS011;13256;49.012;8.610;2022-08-19T08:12:33;21.40;;;14.57;;
25319;SDS011;13256;49.012;8.610;2022-08-19T08:15:13;22.35;;;14.70;;
25319;SDS011;13256;49.012;8.610;2022-08-19T08:17:43;19.45;;;13.95;;
25319;SDS011;13256;49.012;8.610;2022-08-19T08:20:20;21.92;;;14.65;;
25319;SDS011;13256;49.012;8.610;2022-08-19T08:22:50;17.50;;;13.63;;
25319;SDS011;13256;49.012;8.610;2022-08-19T08:25:39;18.40;;;13.68;;
25319;SDS011;13256;49.012;8.610;2022-08-19T08:28:06;21.33;;;13.83;;
25319;SDS011;13256;49.012;8.610;2022-08-19T08:30:37;20.20;;;13.35;;
25319;SDS011;13256;49.012;8.610;2022-08-19T08:33:13;16.17;;;12.65;;
25319;SDS011;13256;49.012;8.610;2022-08-19T08:36:01;18.00;;;12.57;;
25319;SDS011;13256;49.012;8.610;2022-08-19T08:38:40;17.85;;;11.75;;
25319;SDS011;13256;49.012;8.610;2022-08-19T08:41:58;17.20;;;12.27;;
25319;SDS011;13256;49.012;8.610;2022-08-19T08:47:03;13.95;;;10.40;;
25319;SDS011;13256;49.012;8.610;2022-08-19T08:52:13;15.45;;;12.27;;
25319;SDS011;13256;49.012;8.610;2022-08-19T08:54:51;15.32;;;10.75;;
25319;SDS011;13256;49.012;8.610;2022-08-19T08:57:36;16.05;;;11.32;;
25319;SDS011;13256;49.012;8.610;2022-08-19T09:03:00;14.87;;;9.60;;
25319;SDS011;13256;49.012;8.610;2022-08-19T09:05:39;14.15;;;9.88;;
25319;SDS011;13256;49.012;8.610;2022-08-19T09:08:45;14.50;;;9.73;;
25319;SDS011;13256;49.012;8.610;2022-08-19T09:14:13;10.38;;;7.88;;
25319;SDS011;13256;49.012;8.610;2022-08-19T09:17:09;14.00;;;8.93;;
25319;SDS011;13256;49.012;8.610;2022-08-19T09:19:54;14.45;;;7.68;;
25319;SDS011;13256;49.012;8.610;2022-08-19T09:22:52;12.60;;;7.50;;
25319;SDS011;13256;49.012;8.610;2022-08-19T09:25:23;13.80;;;8.00;;
25319;SDS011;13256;49.012;8.610;2022-08-19T09:27:55;12.27;;;7.25;;
25319;SDS011;13256;49.012;8.610;2022-08-19T09:33:35;12.60;;;6.55;;
25319;SDS011;13256;49.012;8.610;2022-08-19T09:36:06;9.48;;;6.13;;
25319;SDS011;13256;49.012;8.610;2022-08-19T09:38:35;13.40;;;7.50;;
25319;SDS011;13256;49.012;8.610;2022-08-19T09:41:14;11.73;;;8.07;;
25319;SDS011;13256;49.012;8.610;2022-08-19T09:43:47;11.23;;;6.90;;
25319;SDS011;13256;49.012;8.610;2022-08-19T09:46:44;9.15;;;7.10;;
25319;SDS011;13256;49.012;8.610;2022-08-19T09:49:14;9.13;;;6.43;;
25319;SDS011;13256;49.012;8.610;2022-08-19T09:51:48;13.57;;;7.70;;
25319;SDS011;13256;49.012;8.610;2022-08-19T09:54:17;7.50;;;6.20;;
25319;SDS011;13256;49.012;8.610;2022-08-19T09:56:53;12.20;;;6.30;;
25319;SDS011;13256;49.012;8.610;2022-08-19T09:59:21;10.77;;;7.30;;
25319;SDS011;13256;49.012;8.610;2022-08-19T10:01:48;13.68;;;8.25;;
25319;SDS011;13256;49.012;8.610;2022-08-19T10:04:15;9.05;;;6.80;;
25319;SDS011;13256;49.012;8.610;2022-08-19T10:06:48;10.43;;;6.53;;
25319;SDS011;13256;49.012;8.610;2022-08-19T10:09:45;12.23;;;7.07;;
25319;SDS011;13256;49.012;8.610;2022-08-19T10:12:15;7.60;;;6.25;;
25319;SDS011;13256;49.012;8.610;2022-08-19T10:14:48;8.98;;;6.95;;
25319;SDS011;13256;49.012;8.610;2022-08-19T10:17:17;10.30;;;6.30;;
25319;SDS011;13256;49.012;8.610;2022-08-19T10:19:48;9.80;;;6.72;;
25319;SDS011;13256;49.012;8.610;2022-08-19T10:22:21;9.07;;;6.60;;
25319;SDS011;13256;49.012;8.610;2022-08-19T10:24:53;9.70;;;6.47;;
25319;SDS011;13256;49.012;8.610;2022-08-19T10:27:26;12.50;;;6.82;;
25319;SDS011;13256;49.012;8.610;2022-08-19T10:29:59;8.57;;;5.93;;
25319;SDS011;13256;49.012;8.610;2022-08-19T10:32:27;7.05;;;5.22;;
25319;SDS011;13256;49.012;8.610;2022-08-19T10:35:00;8.75;;;5.85;;
25319;SDS011;13256;49.012;8.610;2022-08-19T10:37:35;8.02;;;5.43;;
25319;SDS011;13256;49.012;8.610;2022-08-19T10:40:19;8.13;;;5.95;;
25319;SDS011;13256;49.012;8.610;2022-08-19T10:45:48;7.85;;;5.72;;
25319;SDS011;13256;49.012;8.610;2022-08-19T10:51:16;11.38;;;5.55;;
25319;SDS011;13256;49.012;8.610;2022-08-19T10:56:59;7.43;;;5.97;;
25319;SDS011;13256;49.012;8.610;2022-08-19T10:59:27;8.55;;;5.57;;
25319;SDS011;13256;49.012;8.610;2022-08-19T11:05:11;7.93;;;5.75;;
25319;SDS011;13256;49.012;8.610;2022-08-19T11:08:04;10.20;;;6.30;;
25319;SDS011;13256;49.012;8.610;2022-08-19T11:10:51;11.45;;;5.97;;
25319;SDS011;13256;49.012;8.610;2022-08-19T11:13:21;8.25;;;5.50;;
25319;SDS011;13256;49.012;8.610;2022-08-19T11:18:34;8.02;;;6.20;;
25319;SDS011;13256;49.012;8.610;2022-08-19T11:21:09;7.32;;;5.18;;
25319;SDS011;13256;49.012;8.610;2022-08-19T11:23:50;9.90;;;5.60;;
25319;SDS011;13256;49.012;8.610;2022-08-19T11:26:21;10.50;;;5.80;;
25319;SDS011;13256;49.012;8.610;2022-08-19T11:28:48;6.50;;;5.20;;
25319;SDS011;13256;49.012;8.610;2022-08-19T11:31:22;7.72;;;5.40;;
25319;SDS011;13256;49.012;8.610;2022-08-19T11:33:56;8.63;;;5.22;;
25319;SDS011;13256;49.012;8.610;2022-08-19T11:36:28;5.85;;;5.20;;
25319;SDS011;13256;49.012;8.610;2022-08-19T11:39:00;7.18;;;5.45;;
25319;SDS011;13256;49.012;8.610;2022-08-19T11:44:20;11.80;;;5.60;;
25319;SDS011;13256;49.012;8.610;2022-08-19T11:46:46;6.28;;;5.65;;
25319;SDS011;13256;49.012;8.610;2022-08-19T11:49:14;6.88;;;5.78;;
25319;SDS011;13256;49.012;8.610;2022-08-19T11:51:42;10.73;;;5.30;;
25319;SDS011;13256;49.012;8.610;2022-08-19T11:54:09;6.20;;;5.45;;
25319;SDS011;13256;49.012;8.610;2022-08-19T11:56:37;7.20;;;5.22;;
25319;SDS011;13256;49.012;8.610;2022-08-19T11:59:04;6.78;;;5.05;;
25319;SDS011;13256;49.012;8.610;2022-08-19T12:01:40;6.93;;;4.70;;
25319;SDS011;13256;49.012;8.610;2022-08-19T12:04:08;6.43;;;4.53;;
25319;SDS011;13256;49.012;8.610;2022-08-19T12:06:40;7.93;;;4.87;;
25319;SDS011;13256;49.012;8.610;2022-08-19T12:09:09;6.78;;;5.00;;
25319;SDS011;13256;49.012;8.610;2022-08-19T12:11:39;5.32;;;4.35;;
25319;SDS011;13256;49.012;8.610;2022-08-19T12:14:09;5.80;;;4.53;;
25319;SDS011;13256;49.012;8.610;2022-08-19T12:16:44;8.68;;;5.03;;
25319;SDS011;13256;49.012;8.610;2022-08-19T12:22:27;8.43;;;5.63;;
25319;SDS011;13256;49.012;8.610;2022-08-19T12:30:30;6.38;;;5.78;;
25319;SDS011;13256;49.012;8.610;2022-08-19T12:33:04;9.40;;;5.90;;
25319;SDS011;13256;49.012;8.610;2022-08-19T12:35:30;7.63;;;5.90;;
25319;SDS011;13256;49.012;8.610;2022-08-19T12:37:57;7.63;;;6.20;;
25319;SDS011;13256;49.012;8.610;2022-08-19T12:45:48;7.18;;;6.32;;
25319;SDS011;13256;49.012;8.610;2022-08-19T12:48:17;10.02;;;6.55;;
25319;SDS011;13256;49.012;8.610;2022-08-19T12:53:38;7.80;;;6.85;;
25319;SDS011;13256;49.012;8.610;2022-08-19T12:56:06;8.98;;;6.40;;
25319;SDS011;13256;49.012;8.610;2022-08-19T12:58:38;9.23;;;6.57;;
25319;SDS011;13256;49.012;8.610;2022-08-19T13:01:15;7.50;;;5.72;;
25319;SDS011;13256;49.012;8.610;2022-08-19T13:09:40;7.10;;;5.75;;
25319;SDS011;13256;49.012;8.610;2022-08-19T13:15:05;6.88;;;6.28;;
25319;SDS011;13256;49.012;8.610;2022-08-19T13:39:06;7.65;;;6.63;;
25319;SDS011;13256;49.012;8.610;2022-08-19T13:41:36;7.38;;;5.95;;
25319;SDS011;13256;49.012;8.610;2022-08-19T13:44:12;7.47;;;6.38;;
25319;SDS011;13256;49.012;8.610;2022-08-19T13:46:39;7.25;;;6.18;;
25319;SDS011;13256;49.012;8.610;2022-08-19T13:49:11;8.52;;;6.47;;
25319;SDS011;13256;49.012;8.610;2022-08-19T13:51:42;7.63;;;6.18;;
25319;SDS011;13256;49.012;8.610;2022-08-19T13:54:10;8.60;;;6.25;;
25319;SDS011;13256;49.012;8.610;2022-08-19T13:56:42;7.43;;;6.70;;
25319;SDS011;13256;49.012;8.610;2022-08-19T13:59:16;11.25;;;6.45;;
25319;SDS011;13256;49.012;8.610;2022-08-19T14:01:43;8.27;;;6.13;;
25319;SDS011;13256;49.012;8.610;2022-08-19T14:04:11;7.00;;;6.25;;
25319;SDS011;13256;49.012;8.610;2022-08-19T14:06:37;8.05;;;6.20;;
25319;SDS011;13256;49.012;8.610;2022-08-19T14:17:59;7.93;;;6.88;;
25319;SDS011;13256;49.012;8.610;2022-08-19T14:20:26;10.48;;;6.75;;
25319;SDS011;13256;49.012;8.610;2022-08-19T14:22:58;9.95;;;5.90;;
25319;SDS011;13256;49.012;8.610;2022-08-19T14:25:28;6.95;;;6.13;;
25319;SDS011;13256;49.012;8.610;2022-08-19T14:27:56;6.70;;;5.88;;
25319;SDS011;13256;49.012;8.610;2022-08-19T14:30:31;7.78;;;6.32;;
25319;SDS011;13256;49.012;8.610;2022-08-19T14:35:39;6.75;;;5.57;;
25319;SDS011;13256;49.012;8.610;2022-08-19T14:44:22;6.57;;;5.82;;
25319;SDS011;13256;49.012;8.610;2022-08-19T14:46:50;6.53;;;5.97;;
25319;SDS011;13256;49.012;8.610;2022-08-19T14:49:20;8.32;;;5.82;;
25319;SDS011;13256;49.012;8.610;2022-08-19T14:52:03;8.55;;;6.00;;
25319;SDS011;13256;49.012;8.610;2022-08-19T14:55:13;5.30;;;4.20;;
25319;SDS011;13256;49.012;8.610;2022-08-19T15:00:36;7.05;;;4.78;;
25319;SDS011;13256;49.012;8.610;2022-08-19T15:03:02;7.88;;;5.18;;
25319;SDS011;13256;49.012;8.610;2022-08-19T15:08:05;5.20;;;4.32;;
25319;SDS011;13256;49.012;8.610;2022-08-19T15:17:03;4.35;;;3.17;;
25319;SDS011;13256;49.012;8.610;2022-08-19T15:19:31;4.32;;;3.80;;
25319;SDS011;13256;49.012;8.610;2022-08-19T15:22:01;3.70;;;3.33;;
25319;SDS011;13256;49.012;8.610;2022-08-19T15:24:35;6.90;;;3.33;;
25319;SDS011;13256;49.012;8.610;2022-08-19T15:29:48;3.65;;;3.28;;
25319;SDS011;13256;49.012;8.610;2022-08-19T15:32:22;3.70;;;3.10;;
25319;SDS011;13256;49.012;8.610;2022-08-19T15:34:49;4.57;;;3.50;;
25319;SDS011;13256;49.012;8.610;2022-08-19T15:43:08;6.85;;;3.45;;
25319;SDS011;13256;49.012;8.610;2022-08-19T15:54:47;3.53;;;3.22;;
25319;SDS011;13256;49.012;8.610;2022-08-19T16:06:25;4.00;;;3.42;;
25319;SDS011;13256;49.012;8.610;2022-08-19T16:08:58;3.90;;;3.50;;
25319;SDS011;13256;49.012;8.610;2022-08-19T16:11:30;4.60;;;3.90;;
25319;SDS011;13256;49.012;8.610;2022-08-19T16:14:13;7.75;;;3.78;;
25319;SDS011;13256;49.012;8.610;2022-08-19T16:16:52;4.10;;;3.70;;
25319;SDS011;13256;49.012;8.610;2022-08-19T16:19:21;3.83;;;3.53;;
25319;SDS011;13256;49.012;8.610;2022-08-19T16:24:43;6.65;;;3.60;;
25319;SDS011;13256;49.012;8.610;2022-08-19T16:30:36;6.43;;;3.85;;
25319;SDS011;13256;49.012;8.610;2022-08-19T16:33:04;4.22;;;3.38;;
25319;SDS011;13256;49.012;8.610;2022-08-19T16:35:32;4.78;;;3.60;;
25319;SDS011;13256;49.012;8.610;2022-08-19T16:37:59;3.58;;;3.28;;
25319;SDS011;13256;49.012;8.610;2022-08-19T16:40:28;7.65;;;3.42;;
25319;SDS011;13256;49.012;8.610;2022-08-19T16:42:57;6.88;;;3.47;;
25319;SDS011;13256;49.012;8.610;2022-08-19T16:45:24;3.95;;;3.60;;
25319;SDS011;13256;49.012;8.610;2022-08-19T16:47:50;3.90;;;3.28;;
25319;SDS011;13256;49.012;8.610;2022-08-19T16:50:17;5.78;;;3.53;;
25319;SDS011;13256;49.012;8.610;2022-08-19T16:53:08;4.72;;;3.60;;
25319;SDS011;13256;49.012;8.610;2022-08-19T16:55:37;5.05;;;3.47;;
25319;SDS011;13256;49.012;8.610;2022-08-19T16:58:06;3.72;;;3.35;;
25319;SDS011;13256;49.012;8.610;2022-08-19T17:03:32;4.85;;;3.70;;
25319;SDS011;13256;49.012;8.610;2022-08-19T17:06:03;4.18;;;3.50;;
25319;SDS011;13256;49.012;8.610;2022-08-19T17:08:48;5.68;;;3.58;;
25319;SDS011;13256;49.012;8.610;2022-08-19T17:11:16;4.35;;;3.40;;
25319;SDS011;13256;49.012;8.610;2022-08-19T17:13:46;4.55;;;3.33;;
25319;SDS011;13256;49.012;8.610;2022-08-19T17:19:01;4.18;;;3.88;;
25319;SDS011;13256;49.012;8.610;2022-08-19T17:27:11;4.50;;;4.10;;
25319;SDS011;13256;49.012;8.610;2022-08-19T17:29:40;6.28;;;4.45;;
25319;SDS011;13256;49.012;8.610;2022-08-19T17:32:16;7.07;;;3.60;;
25319;SDS011;13256;49.012;8.610;2022-08-19T17:37:25;4.32;;;3.50;;
25319;SDS011;13256;49.012;8.610;2022-08-19T17:39:59;5.57;;;3.50;;
25319;SDS011;13256;49.012;8.610;2022-08-19T17:42:31;7.72;;;4.07;;
25319;SDS011;13256;49.012;8.610;2022-08-19T17:45:03;3.88;;;3.47;;
25319;SDS011;13256;49.012;8.610;2022-08-19T17:47:32;6.50;;;4.03;;
25319;SDS011;13256;49.012;8.610;2022-08-19T17:50:00;5.28;;;3.90;;
25319;SDS011;13256;49.012;8.610;2022-08-19T17:52:32;4.45;;;3.90;;
25319;SDS011;13256;49.012;8.610;2022-08-19T17:55:00;5.65;;;3.80;;
25319;SDS011;13256;49.012;8.610;2022-08-19T17:57:28;3.90;;;3.50;;
25319;SDS011;13256;49.012;8.610;2022-08-19T17:59:55;4.20;;;3.53;;
25319;SDS011;13256;49.012;8.610;2022-08-19T18:02:26;5.18;;;3.75;;
25319;SDS011;13256;49.012;8.610;2022-08-19T18:04:58;4.82;;;4.10;;
25319;SDS011;13256;49.012;8.610;2022-08-19T18:07:31;6.65;;;4.40;;
25319;SDS011;13256;49.012;8.610;2022-08-19T18:10:02;4.43;;;3.72;;
25319;SDS011;13256;49.012;8.610;2022-08-19T18:12:40;5.13;;;3.83;;
25319;SDS011;13256;49.012;8.610;2022-08-19T18:15:12;6.97;;;4.13;;
25319;SDS011;13256;49.012;8.610;2022-08-19T18:17:42;5.30;;;4.05;;
25319;SDS011;13256;49.012;8.610;2022-08-19T18:20:13;5.00;;;4.13;;
25319;SDS011;13256;49.012;8.610;2022-08-19T18:22:42;7.35;;;4.28;;
25319;SDS011;13256;49.012;8.610;2022-08-19T18:25:12;9.63;;;5.30;;
25319;SDS011;13256;49.012;8.610;2022-08-19T18:27:57;8.48;;;5.43;;
25319;SDS011;13256;49.012;8.610;2022-08-19T18:36:28;8.00;;;5.43;;
25319;SDS011;13256;49.012;8.610;2022-08-19T18:39:29;7.20;;;5.60;;
25319;SDS011;13256;49.012;8.610;2022-08-19T18:42:20;6.85;;;5.22;;
25319;SDS011;13256;49.012;8.610;2022-08-19T18:45:08;8.43;;;5.82;;
25319;SDS011;13256;49.012;8.610;2022-08-19T18:47:58;7.38;;;5.60;;
25319;SDS011;13256;49.012;8.610;2022-08-19T18:50:56;7.20;;;5.43;;
25319;SDS011;13256;49.012;8.610;2022-08-19T18:53:30;8.70;;;5.90;;
25319;SDS011;13256;49.012;8.610;2022-08-19T18:56:00;7.38;;;5.38;;
25319;SDS011;13256;49.012;8.610;2022-08-19T18:58:31;6.95;;;5.28;;
25319;SDS011;13256;49.012;8.610;2022-08-19T19:01:13;7.63;;;5.43;;
25319;SDS011;13256;49.012;8.610;2022-08-19T19:03:52;8.53;;;5.57;;
25319;SDS011;13256;49.012;8.610;2022-08-19T19:06:24;6.28;;;5.65;;
25319;SDS011;13256;49.012;8.610;2022-08-19T19:08:55;8.25;;;5.82;;
25319;SDS011;13256;49.012;8.610;2022-08-19T19:11:28;6.43;;;5.32;;
25319;SDS011;13256;49.012;8.610;2022-08-19T19:13:59;9.02;;;5.50;;
25319;SDS011;13256;49.012;8.610;2022-08-19T19:16:28;6.68;;;5.40;;
25319;SDS011;13256;49.012;8.610;2022-08-19T19:19:05;7.37;;;5.53;;
25319;SDS011;13256;49.012;8.610;2022-08-19T19:21:35;5.82;;;4.80;;
25319;SDS011;13256;49.012;8.610;2022-08-19T19:24:05;7.18;;;5.03;;
25319;SDS011;13256;49.012;8.610;2022-08-19T19:26:37;7.78;;;5.47;;
25319;SDS011;13256;49.012;8.610;2022-08-19T19:29:04;6.50;;;4.93;;
25319;SDS011;13256;49.012;8.610;2022-08-19T19:31:31;9.55;;;4.97;;
25319;SDS011;13256;49.012;8.610;2022-08-19T19:33:58;5.95;;;4.38;;
25319;SDS011;13256;49.012;8.610;2022-08-19T19:36:25;6.60;;;4.78;;
25319;SDS011;13256;49.012;8.610;2022-08-19T19:38:54;4.80;;;4.30;;
25319;SDS011;13256;49.012;8.610;2022-08-19T19:41:22;5.07;;;4.10;;
25319;SDS011;13256;49.012;8.610;2022-08-19T19:43:52;5.30;;;4.07;;
25319;SDS011;13256;49.012;8.610;2022-08-19T19:46:44;5.43;;;3.70;;
25319;SDS011;13256;49.012;8.610;2022-08-19T19:49:14;4.80;;;3.72;;
25319;SDS011;13256;49.012;8.610;2022-08-19T19:51:44;5.00;;;3.45;;
25319;SDS011;13256;49.012;8.610;2022-08-19T19:54:13;5.57;;;3.53;;
25319;SDS011;13256;49.012;8.610;2022-08-19T19:56:50;5.95;;;3.45;;
25319;SDS011;13256;49.012;8.610;2022-08-19T19:59:19;6.60;;;3.90;;
25319;SDS011;13256;49.012;8.610;2022-08-19T20:01:48;4.28;;;3.42;;
25319;SDS011;13256;49.012;8.610;2022-08-19T20:04:20;7.60;;;3.40;;